Time;durP1;ratioP1;P1;durP2;ratioP2;P2;SDS_P1;SDS_P2;PMS_P1;PMS_P2;Temp;Humidity;BMP_temperature;BMP_pressure;BME280_temperature;BME280_humidity;BME280_pressure;Samples;Min_cycle;Max_cycle;Signal;HPM_P1;HPM_P2
2022/03/05 00:00:03;;;;;;;7.40;4.87;;;-0.60;99.90;;;;;;5057844;28;20368;-82
2022/03/05 00:02:29;;;;;;;7.40;4.95;;;-0.70;99.90;;;;;;5068312;28;20402;-83
2022/03/05 00:04:54;;;;;;;6.40;4.70;;;-0.70;99.90;;;;;;5050191;28;20941;-83
2022/03/05 00:07:20;;;;;;;7.40;5.00;;;-0.70;99.90;;;;;;5068621;28;20402;-83
2022/03/05 00:09:46;;;;;;;7.03;5.20;;;-0.80;99.90;;;;;;5068223;28;20369;-84
2022/03/05 00:12:11;;;;;;;8.90;5.43;;;-0.90;99.90;;;;;;5050081;28;20472;-86
2022/03/05 00:14:37;;;;;;;8.30;5.53;;;-0.90;99.90;;;;;;5052926;28;20391;-83
2022/03/05 00:17:03;;;;;;;6.77;5.47;;;-1.00;99.90;;;;;;5060683;28;20397;-84
2022/03/05 00:19:29;;;;;;;6.97;5.40;;;-1.00;99.90;;;;;;5075089;28;20424;-81
2022/03/05 00:21:54;;;;;;;7.57;5.17;;;-1.10;99.90;;;;;;5070165;28;20885;-84
2022/03/05 00:24:20;;;;;;;7.77;5.50;;;-1.10;99.90;;;;;;5070754;28;20875;-84
2022/03/05 00:26:46;;;;;;;7.20;5.35;;;-1.00;99.90;;;;;;5087915;28;20375;-85
2022/03/05 00:29:12;;;;;;;7.70;5.32;;;-1.00;99.90;;;;;;5066609;28;20830;-84
2022/03/05 00:31:37;;;;;;;5.93;4.83;;;-1.00;99.90;;;;;;5083495;28;20418;-86
2022/03/05 00:34:03;;;;;;;9.33;5.73;;;-1.00;99.90;;;;;;5082473;28;20390;-84
2022/03/05 00:36:30;;;;;;;9.93;6.17;;;-0.90;99.90;;;;;;5068598;28;20385;-85
2022/03/05 00:38:55;;;;;;;8.68;6.68;;;-0.90;99.90;;;;;;5083350;28;20821;-83
2022/03/05 00:41:21;;;;;;;7.30;6.23;;;-1.00;99.90;;;;;;5069640;28;20424;-84
2022/03/05 00:43:47;;;;;;;8.30;5.57;;;-1.00;99.90;;;;;;5071725;28;20376;-85
2022/03/05 00:46:12;;;;;;;7.38;5.53;;;-1.20;99.90;;;;;;5078923;28;20439;-82
2022/03/05 00:48:38;;;;;;;7.43;5.40;;;-1.30;99.90;;;;;;5060310;28;20413;-84
2022/03/05 00:51:04;;;;;;;6.93;5.75;;;-1.40;99.90;;;;;;5054100;28;20389;-82
2022/03/05 00:53:30;;;;;;;8.17;6.23;;;-1.50;99.90;;;;;;5067602;28;20390;-84
2022/03/05 00:55:56;;;;;;;9.07;6.43;;;-1.50;99.90;;;;;;5072020;28;20393;-81
2022/03/05 00:58:22;;;;;;;8.33;5.77;;;-1.50;99.90;;;;;;5073093;28;20428;-84
2022/03/05 01:00:48;;;;;;;6.55;5.70;;;-1.40;99.90;;;;;;5054083;28;20378;-83
2022/03/05 01:03:14;;;;;;;8.45;5.80;;;-1.50;99.90;;;;;;5083776;28;20800;-81
2022/03/05 01:05:39;;;;;;;10.67;7.00;;;-1.40;99.90;;;;;;5079781;28;20385;-81
2022/03/05 01:08:05;;;;;;;8.83;6.20;;;-1.40;99.90;;;;;;5079751;28;20465;-82
2022/03/05 01:10:31;;;;;;;7.93;5.80;;;-1.50;99.90;;;;;;5073992;28;20392;-84
2022/03/05 01:12:57;;;;;;;8.87;6.43;;;-1.60;99.90;;;;;;5081037;28;21371;-85
2022/03/05 01:15:22;;;;;;;8.10;6.27;;;-1.70;99.90;;;;;;5069712;28;20376;-84
2022/03/05 01:17:48;;;;;;;7.27;6.20;;;-1.70;99.90;;;;;;5078848;28;20931;-83
2022/03/05 01:20:14;;;;;;;8.02;6.93;;;-1.60;99.90;;;;;;5091051;28;20403;-81
2022/03/05 01:22:39;;;;;;;8.97;7.13;;;-1.60;99.90;;;;;;5091715;28;21023;-81
2022/03/05 01:25:05;;;;;;;7.45;6.18;;;-1.70;99.90;;;;;;5092640;28;20425;-84
2022/03/05 01:27:31;;;;;;;9.48;7.43;;;-1.70;99.90;;;;;;5069354;28;21087;-82
2022/03/05 01:29:56;;;;;;;10.05;7.35;;;-1.70;99.90;;;;;;5072057;28;20383;-83
2022/03/05 01:32:22;;;;;;;9.02;7.57;;;-1.70;99.90;;;;;;5052967;28;20509;-84
2022/03/05 01:34:47;;;;;;;11.15;7.30;;;-1.70;99.90;;;;;;5053397;28;20910;-82
2022/03/05 01:37:13;;;;;;;8.57;7.23;;;-1.80;99.90;;;;;;5089011;28;20356;-84
2022/03/05 01:39:41;;;;;;;9.97;7.40;;;-1.90;99.90;;;;;;5071255;28;20370;-81
2022/03/05 01:42:07;;;;;;;9.13;7.07;;;-1.90;99.90;;;;;;5054583;28;20404;-81
2022/03/05 01:44:33;;;;;;;10.80;7.70;;;-2.00;99.90;;;;;;5090492;28;20434;-82
2022/03/05 01:47:04;;;;;;;9.13;7.30;;;-2.00;99.90;;;;;;5086164;28;20412;-81
2022/03/05 01:49:30;;;;;;;10.45;7.32;;;-2.00;99.90;;;;;;5089366;28;20381;-83
2022/03/05 01:51:56;;;;;;;12.40;7.53;;;-2.10;99.90;;;;;;5078449;28;20400;-81
2022/03/05 01:54:23;;;;;;;10.37;7.80;;;-2.10;99.90;;;;;;5054239;28;20474;-83
2022/03/05 01:56:49;;;;;;;10.07;7.55;;;-2.20;99.90;;;;;;5072454;28;20738;-82
2022/03/05 01:59:15;;;;;;;9.95;7.60;;;-2.20;99.90;;;;;;5072594;28;20883;-83
2022/03/05 02:01:41;;;;;;;10.50;7.50;;;-2.20;99.90;;;;;;5052801;28;20740;-81
2022/03/05 02:04:07;;;;;;;9.27;6.82;;;-2.20;99.90;;;;;;5061331;28;20400;-83
2022/03/05 02:06:33;;;;;;;11.82;7.78;;;-2.20;99.90;;;;;;5070505;28;20734;-81
2022/03/05 02:08:59;;;;;;;11.43;7.32;;;-2.20;99.90;;;;;;5057517;28;20413;-83
2022/03/05 02:11:26;;;;;;;8.10;5.90;;;-2.10;99.90;;;;;;5052617;28;20378;-83
2022/03/05 02:13:52;;;;;;;7.82;5.63;;;-2.10;99.90;;;;;;5070484;28;20388;-82
2022/03/05 02:16:18;;;;;;;8.30;5.70;;;-2.10;99.90;;;;;;5086031;28;20382;-81
2022/03/05 02:18:49;;;;;;;8.48;6.07;;;-2.20;99.90;;;;;;5064953;28;20435;-82
2022/03/05 02:21:15;;;;;;;9.27;5.70;;;-2.30;99.90;;;;;;5072098;28;21177;-82
2022/03/05 02:23:41;;;;;;;9.07;6.07;;;-2.40;99.90;;;;;;5090708;28;20376;-83
2022/03/05 02:26:07;;;;;;;9.27;5.60;;;-2.40;99.90;;;;;;5090166;28;20483;-81
2022/03/05 02:28:35;;;;;;;7.72;5.50;;;-2.40;99.90;;;;;;5089217;28;20430;-82
2022/03/05 02:31:01;;;;;;;7.47;5.20;;;-2.40;99.90;;;;;;5071877;28;20463;-81
2022/03/05 02:33:27;;;;;;;9.00;5.37;;;-2.40;99.90;;;;;;5079873;28;20572;-83
2022/03/05 02:35:52;;;;;;;7.23;5.50;;;-2.40;99.90;;;;;;5059896;28;20471;-81
2022/03/05 02:38:20;;;;;;;10.20;5.73;;;-2.50;99.90;;;;;;5073988;28;20362;-80
2022/03/05 02:40:46;;;;;;;8.27;5.57;;;-2.50;99.90;;;;;;5069796;28;20799;-82
2022/03/05 02:43:13;;;;;;;8.15;5.82;;;-2.60;99.90;;;;;;5052847;28;20389;-81
2022/03/05 02:45:39;;;;;;;6.63;5.05;;;-2.40;99.90;;;;;;5051611;28;20373;-82
2022/03/05 02:48:07;;;;;;;8.35;5.68;;;-2.50;99.90;;;;;;5061322;28;21153;-81
2022/03/05 02:50:33;;;;;;;7.78;4.93;;;-2.50;99.90;;;;;;5082674;28;20383;-81
2022/03/05 02:52:59;;;;;;;8.57;5.72;;;-2.60;99.90;;;;;;5069479;28;20950;-81
2022/03/05 02:55:25;;;;;;;6.68;4.70;;;-2.60;99.90;;;;;;5073586;28;20451;-81
2022/03/05 02:57:51;;;;;;;9.48;5.00;;;-2.50;99.90;;;;;;5071697;28;20949;-80
2022/03/05 03:00:17;;;;;;;10.48;6.03;;;-2.50;99.90;;;;;;5084231;28;20440;-82
2022/03/05 03:02:46;;;;;;;8.85;5.10;;;-2.50;99.90;;;;;;5071384;28;20377;-81
2022/03/05 03:05:12;;;;;;;7.32;5.20;;;-2.60;99.90;;;;;;5055522;28;21495;-82
2022/03/05 03:07:38;;;;;;;8.32;5.47;;;-2.60;99.90;;;;;;5069309;28;20408;-82
2022/03/05 03:10:05;;;;;;;6.50;5.05;;;-2.60;99.90;;;;;;5069862;28;20386;-82
2022/03/05 03:12:31;;;;;;;9.80;5.30;;;-2.50;99.90;;;;;;5051611;28;20572;-80
2022/03/05 03:14:57;;;;;;;10.23;5.30;;;-2.60;99.90;;;;;;5034703;28;20382;-80
2022/03/05 03:17:23;;;;;;;8.60;5.43;;;-2.60;99.90;;;;;;5069435;28;20419;-82
2022/03/05 03:19:49;;;;;;;10.40;5.32;;;-2.70;99.90;;;;;;5051151;28;20397;-82
2022/03/05 03:22:14;;;;;;;7.88;5.55;;;-2.70;99.90;;;;;;5070510;28;20705;-82
2022/03/05 03:24:41;;;;;;;10.55;5.70;;;-2.70;99.90;;;;;;5076211;28;20393;-82
2022/03/05 03:27:07;;;;;;;8.43;5.43;;;-2.70;99.90;;;;;;5068929;28;20879;-82
2022/03/05 03:29:33;;;;;;;9.40;5.60;;;-2.70;99.90;;;;;;5069166;28;20390;-81
2022/03/05 03:31:58;;;;;;;7.93;5.63;;;-2.60;99.90;;;;;;5068954;28;20373;-80
2022/03/05 03:34:24;;;;;;;9.90;5.63;;;-2.60;99.90;;;;;;5078469;28;20400;-82
2022/03/05 03:36:50;;;;;;;11.10;5.83;;;-2.60;99.90;;;;;;5078783;28;20390;-82
2022/03/05 03:39:16;;;;;;;9.33;6.10;;;-2.60;99.90;;;;;;5068246;28;20385;-83
2022/03/05 03:41:42;;;;;;;11.77;6.07;;;-2.50;99.90;;;;;;5050660;28;20382;-81
2022/03/05 03:44:08;;;;;;;10.52;6.80;;;-2.60;99.90;;;;;;5073078;28;21133;-81
2022/03/05 03:46:34;;;;;;;11.37;6.63;;;-2.60;99.90;;;;;;5087256;28;20423;-81
2022/03/05 03:48:59;;;;;;;12.03;6.63;;;-2.70;99.90;;;;;;5087051;28;20430;-82
2022/03/05 03:51:25;;;;;;;12.33;6.53;;;-2.70;99.90;;;;;;5088662;28;20381;-82
2022/03/05 03:53:51;;;;;;;10.30;6.40;;;-2.80;99.90;;;;;;5087746;28;20388;-81
2022/03/05 03:56:16;;;;;;;10.43;6.33;;;-2.80;99.90;;;;;;5088167;28;20376;-82
2022/03/05 03:58:42;;;;;;;8.20;5.97;;;-2.90;99.90;;;;;;5087372;28;20935;-82
2022/03/05 04:01:08;;;;;;;8.53;5.90;;;-2.90;99.90;;;;;;5088812;28;20421;-82
2022/03/05 04:03:33;;;;;;;9.98;5.95;;;-2.80;99.90;;;;;;5086756;28;20410;-81
2022/03/05 04:05:59;;;;;;;10.02;6.18;;;-2.90;99.90;;;;;;5070931;28;20386;-80
2022/03/05 04:08:42;;;;;;;8.68;5.88;;;-3.00;99.90;;;;;;5069214;28;20408;-81
2022/03/05 04:11:13;;;;;;;9.32;5.90;;;-3.00;99.90;;;;;;5061016;28;20748;-82
2022/03/05 04:13:39;;;;;;;9.48;6.10;;;-3.00;99.90;;;;;;5050501;28;20386;-80
2022/03/05 04:16:06;;;;;;;9.00;5.90;;;-3.10;99.90;;;;;;5070621;28;20456;-82
2022/03/05 04:18:32;;;;;;;9.65;6.07;;;-3.10;99.90;;;;;;5084530;28;20480;-82
2022/03/05 04:20:57;;;;;;;11.75;5.70;;;-3.00;99.90;;;;;;5068258;28;20393;-83
2022/03/05 04:23:23;;;;;;;9.13;5.60;;;-3.00;99.90;;;;;;5054194;28;20455;-80
2022/03/05 04:25:49;;;;;;;9.30;6.20;;;-3.00;99.90;;;;;;5087528;28;20452;-81
2022/03/05 04:28:14;;;;;;;8.53;5.57;;;-3.00;99.90;;;;;;5074481;28;20487;-82
2022/03/05 04:30:40;;;;;;;10.63;5.90;;;-3.10;99.90;;;;;;5061346;28;20382;-83
2022/03/05 04:33:06;;;;;;;9.27;6.67;;;-3.10;99.90;;;;;;5072378;28;20456;-83
2022/03/05 04:35:31;;;;;;;10.03;6.50;;;-3.10;99.90;;;;;;5084935;28;20412;-81
2022/03/05 04:37:57;;;;;;;11.07;6.97;;;-3.00;99.90;;;;;;5072396;28;20921;-83
2022/03/05 04:40:23;;;;;;;10.57;6.27;;;-3.00;99.90;;;;;;5080692;28;20390;-80
2022/03/05 04:42:49;;;;;;;10.03;6.23;;;-3.10;99.90;;;;;;5072887;28;20369;-82
2022/03/05 04:45:15;;;;;;;8.43;5.95;;;-3.10;99.90;;;;;;5086037;28;20726;-81
2022/03/05 04:47:41;;;;;;;9.95;6.40;;;-3.10;99.90;;;;;;5092558;28;20507;-83
2022/03/05 04:50:08;;;;;;;10.90;6.85;;;-3.20;99.90;;;;;;5092535;28;20452;-83
2022/03/05 04:52:34;;;;;;;8.73;6.00;;;-3.20;99.90;;;;;;5070165;28;20404;-83
2022/03/05 04:55:00;;;;;;;10.02;6.40;;;-3.20;99.90;;;;;;5080343;28;20429;-81
2022/03/05 04:57:26;;;;;;;13.40;6.70;;;-3.30;99.90;;;;;;5073557;28;20378;-83
2022/03/05 04:59:52;;;;;;;11.95;6.93;;;-3.30;99.90;;;;;;5071980;28;20386;-81
2022/03/05 05:02:17;;;;;;;9.02;6.93;;;-3.40;99.90;;;;;;5084050;28;20433;-81
2022/03/05 05:04:43;;;;;;;9.90;6.30;;;-3.40;99.90;;;;;;5088537;28;20785;-83
2022/03/05 05:07:09;;;;;;;11.80;7.00;;;-3.40;99.90;;;;;;5091131;28;20471;-81
2022/03/05 05:09:34;;;;;;;11.40;6.90;;;-3.40;99.90;;;;;;5072695;28;20399;-83
2022/03/05 05:12:00;;;;;;;12.67;7.60;;;-3.40;99.90;;;;;;5091623;28;20402;-84
2022/03/05 05:14:26;;;;;;;10.70;6.90;;;-3.50;99.90;;;;;;5087965;28;20382;-81
2022/03/05 05:16:51;;;;;;;11.13;7.00;;;-3.50;99.90;;;;;;5053566;28;20410;-84
2022/03/05 05:19:29;;;;;;;11.37;7.33;;;-3.50;99.90;;;;;;5053377;28;20382;-83
2022/03/05 05:22:01;;;;;;;12.07;7.23;;;-3.60;99.90;;;;;;5073044;28;20460;-84
2022/03/05 05:24:29;;;;;;;11.13;7.57;;;-3.50;99.90;;;;;;5056451;28;20465;-82
2022/03/05 05:26:55;;;;;;;11.77;7.35;;;-3.60;99.90;;;;;;5071992;28;20372;-81
2022/03/05 05:29:21;;;;;;;11.43;7.20;;;-3.50;99.90;;;;;;5055954;28;20910;-84
2022/03/05 05:31:47;;;;;;;11.50;7.10;;;-3.50;99.90;;;;;;5070989;28;20540;-82
2022/03/05 05:34:13;;;;;;;12.50;7.72;;;-3.50;99.90;;;;;;5053451;28;20417;-82
2022/03/05 05:36:39;;;;;;;12.70;7.80;;;-3.50;99.90;;;;;;5053566;28;20376;-84
2022/03/05 05:39:09;;;;;;;16.98;9.98;;;-3.40;99.90;;;;;;5071283;28;20412;-84
2022/03/05 05:41:36;;;;;;;11.18;8.10;;;-3.30;99.90;;;;;;5081719;28;20469;-81
2022/03/05 05:44:06;;;;;;;12.18;8.95;;;-3.30;99.90;;;;;;5071828;28;20378;-82
2022/03/05 05:46:32;;;;;;;15.25;9.63;;;-3.30;99.90;;;;;;5070652;28;20489;-82
2022/03/05 05:48:58;;;;;;;18.55;11.02;;;-3.30;99.90;;;;;;5053042;28;20485;-83
2022/03/05 05:51:25;;;;;;;18.95;12.40;;;-3.20;99.90;;;;;;5062461;28;20412;-84
2022/03/05 05:53:51;;;;;;;16.27;11.45;;;-3.10;99.90;;;;;;5086423;28;20449;-84
2022/03/05 05:56:17;;;;;;;20.17;12.88;;;-3.00;99.90;;;;;;5086902;28;20384;-82
2022/03/05 05:58:42;;;;;;;19.25;12.35;;;-2.90;99.90;;;;;;5073021;28;20384;-85
2022/03/05 06:01:08;;;;;;;16.03;10.17;;;-2.80;99.90;;;;;;5071078;28;20377;-82
2022/03/05 06:03:34;;;;;;;17.53;12.37;;;-2.80;99.90;;;;;;5073690;28;20473;-82
2022/03/05 06:05:59;;;;;;;20.50;13.43;;;-2.80;99.90;;;;;;5052312;28;20394;-83
2022/03/05 06:08:26;;;;;;;23.13;15.32;;;-2.80;99.90;;;;;;5070439;28;20481;-82
2022/03/05 06:10:52;;;;;;;17.13;11.13;;;-2.80;99.90;;;;;;5070863;28;20491;-84
2022/03/05 06:13:18;;;;;;;14.50;10.48;;;-2.70;99.90;;;;;;5072954;28;20403;-84
2022/03/05 06:15:44;;;;;;;21.08;12.05;;;-2.80;99.90;;;;;;5088544;28;20439;-82
2022/03/05 06:18:10;;;;;;;18.92;11.73;;;-2.80;99.90;;;;;;5072188;28;20455;-82
2022/03/05 06:20:36;;;;;;;17.27;11.13;;;-2.90;99.90;;;;;;5090574;28;20881;-82
2022/03/05 06:23:03;;;;;;;19.67;12.40;;;-2.90;99.90;;;;;;5073782;28;20386;-84
2022/03/05 06:25:28;;;;;;;17.97;13.03;;;-2.80;99.90;;;;;;5086827;28;20556;-81
2022/03/05 06:27:54;;;;;;;20.77;13.53;;;-2.70;99.90;;;;;;5070214;28;20531;-83
2022/03/05 06:30:19;;;;;;;23.30;14.30;;;-2.70;99.90;;;;;;5070425;28;20417;-82
2022/03/05 06:32:45;;;;;;;22.13;15.03;;;-2.60;99.90;;;;;;5083744;28;20379;-84
2022/03/05 06:35:11;;;;;;;23.27;15.40;;;-2.50;99.90;;;;;;5089015;28;20937;-83
2022/03/05 06:37:37;;;;;;;19.63;13.98;;;-2.40;99.90;;;;;;5057679;28;21127;-82
2022/03/05 06:40:04;;;;;;;23.13;14.77;;;-2.30;99.90;;;;;;5070709;28;20366;-82
2022/03/05 06:42:30;;;;;;;23.75;14.73;;;-2.20;99.90;;;;;;5059463;28;20883;-83
2022/03/05 06:44:55;;;;;;;19.25;13.15;;;-2.00;99.90;;;;;;5071108;28;20402;-81
2022/03/05 06:47:21;;;;;;;18.98;14.23;;;-1.80;99.90;;;;;;5051417;28;20405;-81
2022/03/05 06:49:46;;;;;;;22.05;14.73;;;-1.70;99.90;;;;;;5052844;28;20380;-83
2022/03/05 06:52:12;;;;;;;21.15;14.90;;;-1.30;99.90;;;;;;5077809;28;20481;-83
2022/03/05 06:54:38;;;;;;;21.45;14.60;;;-1.20;99.90;;;;;;5071304;28;20488;-82
2022/03/05 06:57:04;;;;;;;20.97;14.63;;;-1.10;99.90;;;;;;5059589;28;20375;-82
2022/03/05 06:59:30;;;;;;;15.68;12.90;;;-0.90;99.90;;;;;;5078900;28;20377;-81
2022/03/05 07:01:55;;;;;;;23.10;13.90;;;-0.70;99.90;;;;;;5086897;28;20773;-82
2022/03/05 07:04:21;;;;;;;22.25;13.75;;;-0.50;99.90;;;;;;5052482;28;20421;-81
2022/03/05 07:06:47;;;;;;;21.42;14.23;;;-0.30;99.90;;;;;;5052150;28;20394;-82
2022/03/05 07:09:14;;;;;;;20.70;14.13;;;-0.10;99.90;;;;;;5051504;28;20418;-80
2022/03/05 07:11:40;;;;;;;19.92;13.40;;;-0.10;99.90;;;;;;5073179;28;20403;-82
2022/03/05 07:14:06;;;;;;;23.30;14.55;;;0.00;99.90;;;;;;5090585;28;20388;-80
2022/03/05 07:16:32;;;;;;;20.48;14.48;;;0.30;99.90;;;;;;5067427;28;20394;-82
2022/03/05 07:18:57;;;;;;;20.02;13.57;;;0.50;99.90;;;;;;5076445;28;20384;-82
2022/03/05 07:21:23;;;;;;;20.27;13.77;;;0.60;99.90;;;;;;5089563;28;20587;-81
2022/03/05 07:23:49;;;;;;;22.80;14.95;;;0.50;99.90;;;;;;5092786;28;20379;-81
2022/03/05 07:26:17;;;;;;;22.52;13.98;;;0.60;99.90;;;;;;5092397;28;20369;-81
2022/03/05 07:28:42;;;;;;;21.23;13.85;;;0.70;99.90;;;;;;5060944;28;20407;-82
2022/03/05 07:31:08;;;;;;;21.58;13.85;;;0.80;99.90;;;;;;5072856;28;20824;-82
2022/03/05 07:33:33;;;;;;;20.70;13.23;;;0.90;99.90;;;;;;5089926;28;20391;-80
2022/03/05 07:35:59;;;;;;;21.17;14.20;;;1.00;99.90;;;;;;5085323;28;20880;-80
2022/03/05 07:38:25;;;;;;;19.60;13.30;;;1.10;99.90;;;;;;5054357;28;20425;-81
2022/03/05 07:40:50;;;;;;;19.23;13.13;;;1.20;99.90;;;;;;5073428;28;21113;-81
2022/03/05 07:43:16;;;;;;;19.80;14.30;;;1.30;99.90;;;;;;5070479;28;20388;-80
2022/03/05 07:45:42;;;;;;;18.40;13.30;;;1.40;99.90;;;;;;5090766;28;20373;-80
2022/03/05 07:48:08;;;;;;;19.45;13.55;;;1.40;99.90;;;;;;5083777;28;20503;-82
2022/03/05 07:50:34;;;;;;;19.77;14.23;;;1.30;99.90;;;;;;5051453;28;20803;-80
2022/03/05 07:52:59;;;;;;;17.88;13.65;;;1.40;99.90;;;;;;5066679;28;20890;-79
2022/03/05 07:55:25;;;;;;;19.90;13.87;;;1.50;99.90;;;;;;5088493;28;20384;-81
2022/03/05 07:57:50;;;;;;;19.35;13.63;;;1.60;99.90;;;;;;5090468;28;20372;-82
2022/03/05 08:00:16;;;;;;;20.17;13.88;;;1.70;99.90;;;;;;5067993;28;20384;-80
2022/03/05 08:02:42;;;;;;;18.10;13.63;;;1.90;99.90;;;;;;5080504;28;20392;-83
2022/03/05 08:05:08;;;;;;;19.97;12.90;;;2.10;99.90;;;;;;5087387;28;20391;-84
2022/03/05 08:07:33;;;;;;;19.80;13.73;;;2.10;99.90;;;;;;5089632;28;20483;-80
2022/03/05 08:09:59;;;;;;;20.70;13.82;;;2.10;99.90;;;;;;5089494;28;20388;-81
2022/03/05 08:12:25;;;;;;;18.33;13.82;;;2.10;99.90;;;;;;5079745;28;20871;-84
2022/03/05 08:14:51;;;;;;;20.50;14.07;;;2.10;99.90;;;;;;5050564;28;20389;-84
2022/03/05 08:17:16;;;;;;;20.75;14.15;;;2.30;99.90;;;;;;5050933;28;20930;-84
2022/03/05 08:19:42;;;;;;;18.98;13.45;;;2.30;99.90;;;;;;5070069;28;20418;-84
2022/03/05 08:22:08;;;;;;;19.40;13.50;;;2.30;99.90;;;;;;5056723;28;20890;-85
2022/03/05 08:24:33;;;;;;;18.47;13.40;;;2.30;99.90;;;;;;5088354;28;20388;-82
2022/03/05 08:26:59;;;;;;;17.63;13.37;;;2.40;99.90;;;;;;5071773;28;21330;-85
2022/03/05 08:29:24;;;;;;;21.48;14.07;;;2.50;99.90;;;;;;5070100;28;20846;-81
2022/03/05 08:31:50;;;;;;;20.60;13.38;;;2.60;99.90;;;;;;5079957;28;20403;-84
2022/03/05 08:34:16;;;;;;;16.73;12.93;;;2.60;99.90;;;;;;5070395;28;20438;-84
2022/03/05 08:36:42;;;;;;;18.15;13.27;;;2.70;99.90;;;;;;5064004;28;20433;-84
2022/03/05 08:39:07;;;;;;;21.13;13.30;;;2.90;99.90;;;;;;5069960;28;20432;-82
2022/03/05 08:41:33;;;;;;;19.30;13.53;;;2.90;99.90;;;;;;5067870;28;20866;-83
2022/03/05 08:43:59;;;;;;;22.17;14.35;;;3.10;99.90;;;;;;5067526;28;20819;-84
2022/03/05 08:46:25;;;;;;;17.67;13.10;;;3.10;99.90;;;;;;5066560;28;20426;-87
2022/03/05 08:48:50;;;;;;;19.77;13.50;;;3.40;99.90;;;;;;5069411;28;20898;-81
2022/03/05 08:51:16;;;;;;;17.13;12.80;;;3.40;99.90;;;;;;5079055;28;20467;-84
2022/03/05 08:53:42;;;;;;;19.40;13.43;;;3.50;99.90;;;;;;5073114;28;20389;-85
2022/03/05 08:56:08;;;;;;;17.42;13.38;;;3.70;99.90;;;;;;5066325;28;20390;-84
2022/03/05 08:58:34;;;;;;;19.83;13.70;;;3.60;99.90;;;;;;5070328;28;20381;-83
2022/03/05 09:01:01;;;;;;;18.13;13.13;;;3.60;99.90;;;;;;5069389;28;21486;-83
2022/03/05 09:03:27;;;;;;;19.85;14.27;;;3.70;99.90;;;;;;5071775;28;20389;-82
2022/03/05 09:05:53;;;;;;;19.58;13.60;;;3.70;99.90;;;;;;5075411;28;20392;-82
2022/03/05 09:08:19;;;;;;;21.50;14.20;;;3.80;99.90;;;;;;5068506;28;20768;-83
2022/03/05 09:10:45;;;;;;;17.92;13.75;;;3.90;99.90;;;;;;5073068;28;20375;-83
2022/03/05 09:13:11;;;;;;;16.95;14.15;;;3.80;99.90;;;;;;5075987;28;20806;-83
2022/03/05 09:15:37;;;;;;;18.40;14.30;;;3.90;99.90;;;;;;5083799;28;20564;-82
2022/03/05 09:18:04;;;;;;;20.13;14.23;;;3.90;99.90;;;;;;5092365;28;20973;-82
2022/03/05 09:20:30;;;;;;;19.45;14.25;;;4.00;99.90;;;;;;5066014;28;20380;-82
2022/03/05 09:22:55;;;;;;;22.08;13.60;;;4.10;99.90;;;;;;5078444;28;20392;-83
2022/03/05 09:25:21;;;;;;;18.77;13.88;;;4.30;99.90;;;;;;5095001;28;20437;-84
2022/03/05 09:27:48;;;;;;;18.08;13.38;;;4.40;99.90;;;;;;5094070;28;20405;-82
2022/03/05 09:30:14;;;;;;;19.38;13.88;;;4.50;99.90;;;;;;5088567;28;20463;-85
2022/03/05 09:32:40;;;;;;;18.05;13.50;;;4.60;99.90;;;;;;5057249;28;21189;-84
2022/03/05 09:35:06;;;;;;;18.60;14.05;;;4.60;99.90;;;;;;5073539;28;20362;-84
2022/03/05 09:37:33;;;;;;;19.63;14.27;;;4.90;99.90;;;;;;5074382;28;20401;-85
2022/03/05 09:39:59;;;;;;;19.48;13.70;;;4.90;99.90;;;;;;5067055;28;20394;-81
2022/03/05 09:42:25;;;;;;;20.38;13.68;;;5.10;99.90;;;;;;5090789;28;20393;-86
2022/03/05 09:44:50;;;;;;;20.55;14.15;;;5.00;99.90;;;;;;5072850;28;20371;-84
2022/03/05 09:47:16;;;;;;;20.13;14.17;;;4.80;99.90;;;;;;5075510;28;20405;-84
2022/03/05 09:49:42;;;;;;;18.80;14.25;;;4.70;99.90;;;;;;5066370;28;20396;-86
2022/03/05 09:52:09;;;;;;;20.08;13.48;;;4.80;99.90;;;;;;5056360;28;20472;-85
2022/03/05 09:54:36;;;;;;;22.70;14.07;;;5.20;99.90;;;;;;5056061;28;20434;-84
2022/03/05 09:57:12;;;;;;;18.83;13.15;;;5.20;99.90;;;;;;5074750;28;20378;-83
2022/03/05 09:59:38;;;;;;;17.52;13.18;;;5.10;99.90;;;;;;5063672;28;20430;-84
2022/03/05 10:02:05;;;;;;;18.63;13.57;;;5.20;99.90;;;;;;5067764;28;20462;-84
2022/03/05 10:04:32;;;;;;;19.02;13.55;;;5.40;99.90;;;;;;5074247;28;20396;-83
2022/03/05 10:07:11;;;;;;;17.90;13.77;;;5.30;99.90;;;;;;5062942;28;20392;-85
2022/03/05 10:09:38;;;;;;;18.47;13.70;;;5.30;99.90;;;;;;5076210;28;20437;-84
2022/03/05 10:12:30;;;;;;;19.23;13.73;;;5.30;99.90;;;;;;5093232;28;20380;-85
2022/03/05 10:15:10;;;;;;;18.52;13.95;;;5.60;99.90;;;;;;5073646;28;20795;-83
2022/03/05 10:17:46;;;;;;;19.08;14.00;;;5.50;99.90;;;;;;5093633;28;20388;-85
2022/03/05 10:20:12;;;;;;;16.05;13.15;;;5.50;99.90;;;;;;5078792;28;20477;-84
2022/03/05 10:22:37;;;;;;;18.80;13.90;;;5.60;99.90;;;;;;5074025;28;20910;-85
2022/03/05 10:25:03;;;;;;;19.40;13.85;;;5.60;99.90;;;;;;5079227;28;20391;-85
2022/03/05 10:27:30;;;;;;;16.27;12.77;;;5.80;99.90;;;;;;5060504;28;20406;-84
2022/03/05 10:29:56;;;;;;;18.90;13.55;;;5.80;99.90;;;;;;5070335;28;20390;-87
2022/03/05 10:32:22;;;;;;;17.25;13.20;;;5.70;99.90;;;;;;5042986;28;20481;-86
2022/03/05 10:34:49;;;;;;;17.08;12.40;;;5.60;99.90;;;;;;5053584;28;20879;-85
2022/03/05 10:37:16;;;;;;;17.67;13.23;;;5.60;99.90;;;;;;5069091;28;20399;-87
2022/03/05 10:39:41;;;;;;;18.13;13.13;;;5.60;99.90;;;;;;5077854;28;20736;-86
2022/03/05 10:42:23;;;;;;;17.23;13.05;;;5.50;99.90;;;;;;5068810;28;20387;-86
2022/03/05 10:45:03;;;;;;;14.45;11.93;;;5.60;99.90;;;;;;5055159;28;20386;-86
2022/03/05 10:47:43;;;;;;;18.25;13.00;;;5.40;99.90;;;;;;5072340;28;20414;-84
2022/03/05 10:50:28;;;;;;;16.23;13.17;;;5.50;99.90;;;;;;5074651;28;20377;-84
2022/03/05 10:53:01;;;;;;;15.40;11.85;;;5.80;99.90;;;;;;5072583;28;20431;-84
2022/03/05 10:55:29;;;;;;;22.70;16.88;;;5.60;99.90;;;;;;5073333;28;20430;-84
2022/03/05 10:58:04;;;;;;;17.23;13.07;;;5.60;99.90;;;;;;5091220;28;20381;-85
2022/03/05 11:00:30;;;;;;;22.17;12.68;;;5.60;99.90;;;;;;5080735;28;20372;-85
2022/03/05 11:03:00;;;;;;;15.70;11.77;;;5.90;99.90;;;;;;5095269;28;20368;-84
2022/03/05 11:05:25;;;;;;;15.25;12.45;;;6.20;99.90;;;;;;5060317;28;20400;-86
2022/03/05 11:07:53;;;;;;;16.10;12.32;;;6.20;99.90;;;;;;5093199;28;20400;-86
2022/03/05 11:10:22;;;;;;;15.98;11.90;;;6.10;99.90;;;;;;5087967;28;20748;-86
2022/03/05 11:12:52;;;;;;;17.30;12.50;;;6.20;99.90;;;;;;5070558;28;20442;-84
2022/03/05 11:15:19;;;;;;;14.77;11.32;;;5.90;99.90;;;;;;5049425;28;20387;-85
2022/03/05 11:17:46;;;;;;;15.18;12.48;;;5.90;99.90;;;;;;5065184;28;20371;-84
2022/03/05 11:20:13;;;;;;;17.38;13.05;;;6.00;99.90;;;;;;5063586;28;20848;-84
2022/03/05 11:22:41;;;;;;;14.88;11.98;;;5.90;99.90;;;;;;5070761;28;20386;-86
2022/03/05 11:25:10;;;;;;;14.73;12.10;;;6.00;99.90;;;;;;5069443;28;20402;-85
2022/03/05 11:27:37;;;;;;;14.05;11.48;;;6.10;99.90;;;;;;5068212;28;20946;-85
2022/03/05 11:30:07;;;;;;;15.93;11.85;;;5.90;99.90;;;;;;5051543;28;20465;-84
2022/03/05 11:32:37;;;;;;;16.83;12.38;;;5.70;99.90;;;;;;5069379;28;20392;-86
2022/03/05 11:35:19;;;;;;;13.60;11.52;;;5.70;99.90;;;;;;5073557;28;20394;-85
2022/03/05 11:37:44;;;;;;;14.32;11.48;;;5.80;99.90;;;;;;5066517;28;20386;-86
2022/03/05 11:40:40;;;;;;;15.20;12.05;;;5.80;99.90;;;;;;5073018;28;23207;-83
2022/03/05 11:43:20;;;;;;;16.05;11.35;;;5.60;99.90;;;;;;5055700;28;20760;-85
2022/03/05 11:45:56;;;;;;;14.07;11.93;;;5.60;99.90;;;;;;5052455;28;20389;-83
2022/03/05 11:48:24;;;;;;;13.17;10.83;;;5.80;99.90;;;;;;5067839;28;20562;-85
2022/03/05 11:50:54;;;;;;;13.63;10.90;;;5.90;99.90;;;;;;5066746;28;20386;-84
2022/03/05 11:53:20;;;;;;;12.45;10.10;;;6.10;99.90;;;;;;5067383;28;20469;-84
2022/03/05 11:55:46;;;;;;;13.60;11.83;;;6.40;99.90;;;;;;5068425;28;20805;-82
2022/03/05 11:58:12;;;;;;;14.40;10.90;;;6.40;99.90;;;;;;5054293;28;20821;-83
2022/03/05 12:00:38;;;;;;;12.20;9.83;;;6.60;99.90;;;;;;5071485;28;20480;-84
2022/03/05 12:03:05;;;;;;;13.67;10.50;;;6.70;99.90;;;;;;5087335;28;20372;-84
2022/03/05 12:05:44;;;;;;;12.15;9.82;;;6.80;99.90;;;;;;5088687;28;20380;-85
2022/03/05 12:08:33;;;;;;;10.90;9.40;;;7.00;99.90;;;;;;5088085;28;20411;-83
2022/03/05 12:11:18;;;;;;;11.68;9.18;;;7.20;99.90;;;;;;5074015;28;20388;-85
2022/03/05 12:13:46;;;;;;;10.48;7.82;;;;;;;;;;5068341;28;20420;-84
2022/03/05 12:16:20;;;;;;;8.75;7.80;;;;;;;;;;5071473;28;20361;-83
2022/03/05 12:18:49;;;;;;;11.17;8.73;;;;;;;;;;5050900;28;20386;-83
2022/03/05 12:21:21;;;;;;;11.63;9.07;;;;;;;;;;5081089;28;20383;-83
2022/03/05 12:23:48;;;;;;;10.95;9.05;;;;;;;;;;5073341;27;20412;-83
2022/03/05 12:26:17;;;;;;;11.82;8.48;;;;;;;;;;5051669;28;20429;-83
2022/03/05 12:28:45;;;;;;;11.70;8.70;;;;;;;;;;5055284;28;20475;-82
2022/03/05 12:31:20;;;;;;;11.43;9.70;;;6.60;99.90;;;;;;5068092;28;20456;-83
2022/03/05 12:33:47;;;;;;;11.20;8.90;;;5.90;99.90;;;;;;5059970;28;20411;-83
2022/03/05 12:36:15;;;;;;;12.55;9.57;;;6.00;99.90;;;;;;5066803;28;20374;-83
2022/03/05 12:38:40;;;;;;;12.38;9.13;;;5.90;99.90;;;;;;5072448;28;20381;-82